CCGS Cape Naden — CFN5482 — position and weather

sailwx.info

Track history (hours):
 
Tides and Currents Weather Stations Pressure Air Temp Water Temp Dewpoint Dewpoint Depression Visibility Wind Speed Wind Dir Waves Ship Positions

CCGS Cape Naden

Last reported at 2017-Jun-27 11:33 UTC. Time now 2017-Jun-27 22:37 UTC.
Position N 48°51' W 123°30'.

Length 15 m; draft 0.8 m.

Type: SAR. MMSI: 316017162.

Date/timePositionNaut miles runAvg speedWind from/ knotsBaromVisibWave heightAir tempDewpointWater temp
2017-Jun-27 11:33N 48°51' W 123°30'0 0.0
2017-Jun-27 11:30N 48°51' W 123°30'0 0.0
2017-Jun-27 07:58N 48°51' W 123°30'0 0.0
2017-Jun-27 07:24N 48°51' W 123°30'0 0.0
2017-Jun-27 06:47N 48°51' W 123°30'0 0.0
2017-Jun-27 06:29N 48°51' W 123°30'0 0.0
2017-Jun-27 02:40N 48°51' W 123°30'0 0.0
2017-Jun-27 02:05N 48°51' W 123°30'0 0.0
2017-Jun-26 23:58N 48°51' W 123°30'0 0.0
2017-Jun-26 23:05N 48°51' W 123°30'0 0.0
2017-Jun-26 22:55N 48°51' W 123°30'0 0.0
2017-Jun-26 18:56N 48°51' W 123°30'0 0.0
2017-Jun-26 17:13N 48°51' W 123°30'0 0.0
2017-Jun-24 19:02N 48°51' W 123°30'512.6
2017-Jun-24 18:38N 48°48' W 123°23'215.4
2017-Jun-24 18:30N 48°46' W 123°22'612.0
2017-Jun-24 18:00N 48°52' W 123°24'4 0.5
2017-Jun-24 10:19N 48°51' W 123°30'0 0.0
2017-Jun-24 07:08N 48°51' W 123°30'0 0.0
2017-Jun-24 06:59N 48°51' W 123°30'0 0.0
2017-Jun-24 06:26N 48°51' W 123°30'0 0.0
2017-Jun-24 05:59N 48°51' W 123°30'0 0.0
2017-Jun-24 05:17N 48°51' W 123°30'0 0.0
2017-Jun-24 04:07N 48°51' W 123°30'0 0.0
2017-Jun-24 03:41N 48°51' W 123°30'0 0.0
2017-Jun-24 02:55N 48°51' W 123°30'0 0.0
2017-Jun-24 02:25N 48°51' W 123°30'0 0.0
2017-Jun-24 01:58N 48°51' W 123°30'0 0.0
2017-Jun-24 01:23N 48°51' W 123°30'0 0.0
2017-Jun-24 00:46N 48°51' W 123°30'0 0.0
2017-Jun-23 23:09N 48°51' W 123°30'0 0.0
2017-Jun-23 22:39N 48°51' W 123°30'0 0.0
2017-Jun-23 22:03N 48°51' W 123°30'0 0.0
2017-Jun-23 21:30N 48°51' W 123°30'0 0.0
2017-Jun-23 20:55N 48°51' W 123°30'0 0.0
2017-Jun-23 16:43N 48°51' W 123°30'0 0.0
2017-Jun-23 13:55N 48°51' W 123°30'0 0.0
2017-Jun-23 13:20N 48°51' W 123°30'0 0.0
2017-Jun-23 08:17N 48°51' W 123°30'0 0.0
2017-Jun-23 07:46N 48°51' W 123°30'0 0.0
2017-Jun-23 06:09N 48°51' W 123°30'0 0.0
2017-Jun-23 03:56N 48°51' W 123°30'0 0.0
2017-Jun-23 03:27N 48°51' W 123°30'0 0.0
2017-Jun-22 18:41N 48°51' W 123°30'0 0.0
2017-Jun-22 18:30N 48°51' W 123°30'0 0.0
2017-Jun-22 18:00N 48°51' W 123°30'0 0.0
2017-Jun-22 16:03N 48°51' W 123°30'0 0.0
2017-Jun-22 14:07N 48°51' W 123°30'0 0.0
2017-Jun-22 13:20N 48°51' W 123°30'0 0.0
2017-Jun-22 11:58N 48°51' W 123°30'0 0.0
2017-Jun-22 10:22N 48°51' W 123°30'0 0.0
2017-Jun-22 09:48N 48°51' W 123°30'0 0.0
2017-Jun-22 09:30N 48°51' W 123°30'0 0.0
2017-Jun-22 09:00N 48°51' W 123°30'0 0.0
2017-Jun-22 08:29N 48°51' W 123°30'0 0.0
2017-Jun-22 07:56N 48°51' W 123°30'0 0.0
2017-Jun-22 07:27N 48°51' W 123°30'0 0.0
2017-Jun-22 05:55N 48°51' W 123°30'0 0.0
2017-Jun-22 04:15N 48°51' W 123°30'0 0.0
2017-Jun-22 04:00N 48°51' W 123°30'0 0.0
2017-Jun-22 03:27N 48°51' W 123°30'0 0.0
2017-Jun-22 02:52N 48°51' W 123°30'0 0.0
2017-Jun-22 01:33N 48°51' W 123°30'6 1.8
2017-Jun-21 22:08N 48°47' W 123°22'322.3
2017-Jun-21 22:01N 48°46' W 123°19'4 5.7
2017-Jun-21 21:23N 48°49' W 123°18'8 0.8
2017-Jun-21 11:17N 48°51' W 123°30'0 0.0
2017-Jun-21 10:58N 48°51' W 123°30'0 0.0
2017-Jun-21 08:25N 48°51' W 123°30'7 0.2
2017-Jun-19 20:32N 48°47' W 123°22'119.9
2017-Jun-19 20:30N 48°46' W 123°22'918.2
2017-Jun-19 20:00N 48°44' W 123°35'1 2.6
2017-Jun-19 19:30N 48°45' W 123°37'0 0.0
2017-Jun-19 19:00N 48°45' W 123°37'1 1.4
2017-Jun-19 18:30N 48°44' W 123°36'918.4
2017-Jun-19 18:01N 48°46' W 123°22'  
Track history (hours):
 
Tides and Currents Weather Stations Pressure Air Temp Water Temp Dewpoint Dewpoint Depression Visibility Wind Speed Wind Dir Waves Ship Positions

CCGS Cape Naden

Last reported at 2017-Jun-27 11:33 UTC. Time now 2017-Jun-27 22:37 UTC.
Position N 48°51' W 123°30'.

Length 15 m; draft 0.8 m.

Type: SAR. MMSI: 316017162.

Date/timePositionNaut miles runAvg speedWind from/ knotsBaromVisibWave heightAir tempDewpointWater temp
2017-Jun-27 11:33N 48°51' W 123°30'0 0.0
2017-Jun-27 11:30N 48°51' W 123°30'0 0.0
2017-Jun-27 07:58N 48°51' W 123°30'0 0.0
2017-Jun-27 07:24N 48°51' W 123°30'0 0.0
2017-Jun-27 06:47N 48°51' W 123°30'0 0.0
2017-Jun-27 06:29N 48°51' W 123°30'0 0.0
2017-Jun-27 02:40N 48°51' W 123°30'0 0.0
2017-Jun-27 02:05N 48°51' W 123°30'0 0.0
2017-Jun-26 23:58N 48°51' W 123°30'0 0.0
2017-Jun-26 23:05N 48°51' W 123°30'0 0.0
2017-Jun-26 22:55N 48°51' W 123°30'0 0.0
2017-Jun-26 18:56N 48°51' W 123°30'0 0.0
2017-Jun-26 17:13N 48°51' W 123°30'0 0.0
2017-Jun-24 19:02N 48°51' W 123°30'512.6
2017-Jun-24 18:38N 48°48' W 123°23'215.4
2017-Jun-24 18:30N 48°46' W 123°22'612.0
2017-Jun-24 18:00N 48°52' W 123°24'4 0.5
2017-Jun-24 10:19N 48°51' W 123°30'0 0.0
2017-Jun-24 07:08N 48°51' W 123°30'0 0.0
2017-Jun-24 06:59N 48°51' W 123°30'0 0.0
2017-Jun-24 06:26N 48°51' W 123°30'0 0.0
2017-Jun-24 05:59N 48°51' W 123°30'0 0.0
2017-Jun-24 05:17N 48°51' W 123°30'0 0.0
2017-Jun-24 04:07N 48°51' W 123°30'0 0.0
2017-Jun-24 03:41N 48°51' W 123°30'0 0.0
2017-Jun-24 02:55N 48°51' W 123°30'0 0.0
2017-Jun-24 02:25N 48°51' W 123°30'0 0.0
2017-Jun-24 01:58N 48°51' W 123°30'0 0.0
2017-Jun-24 01:23N 48°51' W 123°30'0 0.0
2017-Jun-24 00:46N 48°51' W 123°30'0 0.0
2017-Jun-23 23:09N 48°51' W 123°30'0 0.0
2017-Jun-23 22:39N 48°51' W 123°30'0 0.0
2017-Jun-23 22:03N 48°51' W 123°30'0 0.0
2017-Jun-23 21:30N 48°51' W 123°30'0 0.0
2017-Jun-23 20:55N 48°51' W 123°30'0 0.0
2017-Jun-23 16:43N 48°51' W 123°30'0 0.0
2017-Jun-23 13:55N 48°51' W 123°30'0 0.0
2017-Jun-23 13:20N 48°51' W 123°30'0 0.0
2017-Jun-23 08:17N 48°51' W 123°30'0 0.0
2017-Jun-23 07:46N 48°51' W 123°30'0 0.0
2017-Jun-23 06:09N 48°51' W 123°30'0 0.0
2017-Jun-23 03:56N 48°51' W 123°30'0 0.0
2017-Jun-23 03:27N 48°51' W 123°30'0 0.0
2017-Jun-22 18:41N 48°51' W 123°30'0 0.0
2017-Jun-22 18:30N 48°51' W 123°30'0 0.0
2017-Jun-22 18:00N 48°51' W 123°30'0 0.0
2017-Jun-22 16:03N 48°51' W 123°30'0 0.0
2017-Jun-22 14:07N 48°51' W 123°30'0 0.0
2017-Jun-22 13:20N 48°51' W 123°30'0 0.0
2017-Jun-22 11:58N 48°51' W 123°30'0 0.0
2017-Jun-22 10:22N 48°51' W 123°30'0 0.0
2017-Jun-22 09:48N 48°51' W 123°30'0 0.0
2017-Jun-22 09:30N 48°51' W 123°30'0 0.0
2017-Jun-22 09:00N 48°51' W 123°30'0 0.0
2017-Jun-22 08:29N 48°51' W 123°30'0 0.0
2017-Jun-22 07:56N 48°51' W 123°30'0 0.0
2017-Jun-22 07:27N 48°51' W 123°30'0 0.0
2017-Jun-22 05:55N 48°51' W 123°30'0 0.0
2017-Jun-22 04:15N 48°51' W 123°30'0 0.0
2017-Jun-22 04:00N 48°51' W 123°30'0 0.0
2017-Jun-22 03:27N 48°51' W 123°30'0 0.0
2017-Jun-22 02:52N 48°51' W 123°30'0 0.0
2017-Jun-22 01:33N 48°51' W 123°30'6 1.8
2017-Jun-21 22:08N 48°47' W 123°22'322.3
2017-Jun-21 22:01N 48°46' W 123°19'4 5.7
2017-Jun-21 21:23N 48°49' W 123°18'8 0.8
2017-Jun-21 11:17N 48°51' W 123°30'0 0.0
2017-Jun-21 10:58N 48°51' W 123°30'0 0.0
2017-Jun-21 08:25N 48°51' W 123°30'7 0.2
2017-Jun-19 20:32N 48°47' W 123°22'119.9
2017-Jun-19 20:30N 48°46' W 123°22'918.2
2017-Jun-19 20:00N 48°44' W 123°35'1 2.6
2017-Jun-19 19:30N 48°45' W 123°37'0 0.0
2017-Jun-19 19:00N 48°45' W 123°37'1 1.4
2017-Jun-19 18:30N 48°44' W 123°36'918.4
2017-Jun-19 18:01N 48°46' W 123°22'  

Dump ship's entire track history